Airfield :
LOGIN :

Register | Disclaimer

   EN    FR    IT 

 










Legend :    VFR   Marginal VFR   IFR   Intensive IFR   Very Intensive IFR
Visi :
Ceiling :
>= 8 km
>= 3000ft
5 to 8 km
1000 to 3000 ft
1500m to 5 km
500 to 1000 ft
800 to 1500m
200 to 500 ft
< 800m
< 200 ft
Symbols :   Thunderstorms  Fog  Heavy snow  Heavy precipitations  Wind > 20 kt
SIGMETs :     Misc.  Thunderstorms  Icing  Turbulence  Mountain Waves  Volcanic Ashes







- Airport Elevation : 63 ft
- IATA code : BZM


EHWO - Woensdrecht Airbase

CURRENT METAR :
  • 201355Z AUTO 20007KT 150V220 9999 BKN340 24/13 Q1013 BLU 20010KT CAVOK TEMPO 22010G20KT

EXPIRED METARs :
  • 201325Z AUTO 19010KT 160V250 9999 OVC360 23/14 Q1014 BLU 20010KT 9999 FEW030 TEMPO 22010G20KT
  • 201255Z AUTO 19012KT 170V240 9999 BKN360 23/13 Q1014 BLU 22012KT 9999 FEW030 TEMPO 22010G20KT
  • 201225Z AUTO 21010KT 170V250 9999 FEW350 23/14 Q1014 BLU 22012KT 9999 FEW030 TEMPO 22010G20KT
  • 201155Z AUTO 22013KT 170V250 9999 BKN360 22/14 Q1015 BLU 22012KT 9999 FEW030 TEMPO 22010G20KT
  • 201125Z AUTO 21011KT 190V250 9999 OVC310 21/14 Q1015 BLU 22012KT 9999 FEW030 TEMPO 22010G20KT

TAF TAF EHWO
Valid from the 20 at 09:00 until the 20 at 21:00 UTC


200832Z 2009/2021 21012KT 9999 SCT016
BECMG 2009/2011 22012G22KT
BECMG 2010/2012 SCT028
BECMG 2016/2018 18007KT
No reported NOTAMs for that airfield.



MET'MAP, your aeronautical weather chart ! - Copyright ORBIFLY December 2007 - Disclaimer

ORBIFLY MET'MAP TEAM :

Programming & Development : Alexandra Zaïnal
Concept & Development : Baudouin d'Aumeries
Co-Development & Prog : Marc-Olivier Méhu
Technical & hardware support : Manuel Goepfert

Contact : metmap@orbifly.com




SOURCES & CREDITS :

   NOAA